Time;durP1;ratioP1;P1;durP2;ratioP2;P2;SDS_P1;SDS_P2;PMS_P1;PMS_P2;Temp;Humidity;BMP_temperature;BMP_pressure;BME280_temperature;BME280_humidity;BME280_pressure;Samples;Min_cycle;Max_cycle;Signal;HPM_P1;HPM_P2
2024/01/14 00:01:48;;;;;;;55.53;24.90;;;-2.60;88.80;;;-3.09;56.58;94868.22;5006167;28;20560;-61
2024/01/14 00:04:15;;;;;;;60.03;26.93;;;-2.50;88.90;;;-3.06;57.36;94877.59;5005533;28;20457;-70
2024/01/14 00:06:43;;;;;;;65.90;30.00;;;-2.50;89.10;;;-3.08;56.38;94872.50;5008646;28;20472;-61
2024/01/14 00:09:10;;;;;;;66.60;28.57;;;-2.60;88.70;;;-3.10;56.41;94881.16;5005151;28;20869;-61
2024/01/14 00:11:37;;;;;;;66.67;26.57;;;-2.60;88.70;;;-3.15;57.68;94873.59;5008445;28;20469;-62
2024/01/14 00:14:04;;;;;;;56.97;28.37;;;-2.60;90.10;;;-3.16;57.36;94882.25;5008167;28;20500;-61
2024/01/14 00:16:34;;;;;;;59.30;27.00;;;-2.60;90.00;;;-3.17;56.61;94884.88;5012302;28;20473;-70
2024/01/14 00:19:03;;;;;;;71.67;30.07;;;-2.60;90.50;;;-3.23;58.49;94873.06;5012935;28;20457;-60
2024/01/14 00:21:30;;;;;;;67.07;28.13;;;-2.60;90.70;;;-3.28;58.66;94862.13;5008783;28;20474;-70
2024/01/14 00:23:57;;;;;;;53.37;26.57;;;-2.70;90.70;;;-3.34;58.04;94870.06;5008955;28;20772;-62
2024/01/14 00:26:27;;;;;;;65.13;25.17;;;-2.80;90.80;;;-3.36;57.50;94870.13;5008970;28;20473;-70
2024/01/14 00:28:55;;;;;;;61.63;26.40;;;-2.80;90.60;;;-3.33;57.65;94875.16;5012313;28;20568;-70
2024/01/14 00:31:22;;;;;;;55.83;25.20;;;-2.80;90.80;;;-3.32;57.74;94866.53;5011953;28;20556;-62
2024/01/14 00:33:50;;;;;;;50.93;22.80;;;-2.80;91.00;;;-3.34;58.03;94864.91;5012327;28;20675;-62
2024/01/14 00:36:19;;;;;;;61.37;25.17;;;-2.80;91.10;;;-3.36;58.61;94864.13;5012356;28;20504;-70
2024/01/14 00:38:46;;;;;;;53.00;24.13;;;-2.90;91.30;;;-3.35;58.37;94868.38;5013022;28;20452;-70
2024/01/14 00:41:14;;;;;;;50.17;24.00;;;-2.90;91.00;;;-3.32;57.74;94881.13;5012430;28;20477;-61
2024/01/14 00:43:42;;;;;;;52.97;24.93;;;-2.80;91.00;;;-3.29;57.43;94881.84;5012874;28;20472;-70
2024/01/14 00:46:10;;;;;;;50.60;22.70;;;-2.80;90.80;;;-3.27;57.85;94867.22;5012585;28;20882;-62
2024/01/14 00:48:37;;;;;;;47.83;22.13;;;-2.80;90.90;;;-3.23;57.59;94864.53;5014042;28;20460;-71
2024/01/14 00:51:05;;;;;;;42.57;20.87;;;-2.70;91.10;;;-3.25;57.51;94860.25;5014349;28;20489;-70
2024/01/14 00:53:34;;;;;;;47.60;23.50;;;-2.70;91.10;;;-3.22;57.97;94863.59;5017503;28;20496;-62
2024/01/14 00:56:02;;;;;;;45.10;22.40;;;-2.70;91.00;;;-3.22;57.91;94855.88;5022973;28;20469;-70
2024/01/14 00:58:29;;;;;;;59.80;23.00;;;-2.70;90.80;;;-3.20;57.91;94848.97;5013152;28;20449;-70
2024/01/14 01:00:56;;;;;;;38.87;21.20;;;-2.70;90.80;;;-3.19;57.72;94850.63;5011968;28;20481;-71
2024/01/14 01:03:24;;;;;;;39.53;20.73;;;-2.70;90.70;;;-3.17;57.69;94838.56;5012155;28;20949;-62
2024/01/14 01:05:54;;;;;;;42.20;20.10;;;-2.70;90.80;;;-3.16;57.83;94842.81;5011677;28;20851;-62
2024/01/14 01:08:21;;;;;;;46.93;21.20;;;-2.70;90.70;;;-3.15;57.35;94849.63;5012168;28;20878;-61
2024/01/14 01:10:50;;;;;;;40.73;19.33;;;-2.70;90.70;;;-3.16;57.90;94841.09;5011374;28;20560;-61
2024/01/14 01:13:18;;;;;;;41.20;21.27;;;-2.70;90.70;;;-3.17;57.97;94836.81;5011396;28;20547;-70
2024/01/14 01:15:45;;;;;;;41.30;19.80;;;-2.60;90.90;;;-3.18;57.92;94829.16;5012593;28;20488;-61
2024/01/14 01:18:12;;;;;;;41.93;21.10;;;-2.60;90.80;;;-3.21;58.23;94826.72;5012762;28;20829;-70
2024/01/14 01:20:40;;;;;;;41.97;20.47;;;-2.70;90.90;;;-3.23;57.09;94825.94;5011698;28;20465;-62
2024/01/14 01:23:06;;;;;;;43.10;21.57;;;-2.70;90.80;;;-3.23;57.60;94843.94;5009999;28;20450;-62
2024/01/14 01:25:34;;;;;;;46.67;20.87;;;-2.70;91.10;;;-3.24;58.00;94830.22;5011139;28;20470;-70
2024/01/14 01:28:02;;;;;;;46.17;23.00;;;-2.70;91.10;;;-3.22;58.12;94831.03;5011227;28;20468;-70
2024/01/14 01:30:30;;;;;;;36.93;19.30;;;-2.70;91.00;;;-3.23;58.27;94824.19;5010842;28;20473;-70
2024/01/14 01:32:57;;;;;;;37.53;20.73;;;-2.70;91.10;;;-3.28;58.04;94818.41;5011155;28;20783;-70
2024/01/14 01:35:24;;;;;;;40.33;20.37;;;-2.70;91.30;;;-3.34;57.18;94821.22;5011442;28;20492;-61
2024/01/14 01:37:52;;;;;;;37.87;19.63;;;-2.80;91.10;;;-3.36;57.68;94817.84;5010744;28;20450;-69
2024/01/14 01:40:19;;;;;;;43.20;19.83;;;-2.80;90.90;;;-3.37;58.18;94811.84;5007309;28;20477;-62
2024/01/14 01:42:49;;;;;;;45.93;21.07;;;-2.90;91.10;;;-3.38;57.89;94807.59;5010937;28;20450;-61
2024/01/14 01:45:18;;;;;;;46.13;22.63;;;-2.90;91.00;;;-3.37;58.67;94806.72;5007706;28;20512;-62
2024/01/14 01:47:45;;;;;;;41.50;21.10;;;-2.90;91.20;;;-3.38;58.38;94807.59;5010705;28;21051;-62
2024/01/14 01:50:13;;;;;;;48.43;21.00;;;-2.90;91.00;;;-3.36;58.04;94807.53;5012731;28;20477;-62
2024/01/14 01:52:40;;;;;;;45.17;22.17;;;-2.80;91.30;;;-3.36;57.89;94799.84;5011250;28;20513;-62
2024/01/14 01:55:08;;;;;;;40.93;20.10;;;-2.80;91.30;;;-3.35;57.79;94797.19;5010462;28;20667;-71
2024/01/14 01:57:36;;;;;;;42.43;20.77;;;-2.80;91.40;;;-3.34;58.07;94795.50;5010987;28;20450;-62
2024/01/14 02:00:04;;;;;;;35.90;18.20;;;-2.80;91.60;;;-3.36;57.84;94795.53;5010603;28;20839;-61
2024/01/14 02:02:33;;;;;;;45.83;20.03;;;-2.80;91.70;;;-3.37;58.90;94791.28;5010875;28;20536;-71
2024/01/14 02:05:00;;;;;;;52.03;19.30;;;-2.80;91.80;;;-3.41;58.73;94787.16;5010996;28;20564;-61
2024/01/14 02:07:27;;;;;;;41.33;20.37;;;-2.90;91.80;;;-3.41;58.14;94789.72;5010247;28;20515;-61
2024/01/14 02:09:55;;;;;;;45.33;19.83;;;-2.90;91.50;;;-3.40;58.56;94785.44;5013185;28;21054;-61
2024/01/14 02:12:22;;;;;;;44.27;20.67;;;-2.90;91.60;;;-3.39;58.71;94793.09;5010276;28;20453;-62
2024/01/14 02:14:49;;;;;;;38.77;19.77;;;-2.90;91.60;;;-3.39;57.85;94793.09;5010167;28;20482;-71
2024/01/14 02:17:17;;;;;;;47.90;21.20;;;-2.90;91.70;;;-3.38;58.32;94794.75;5010112;28;20970;-61
2024/01/14 02:19:46;;;;;;;45.07;20.73;;;-2.90;91.60;;;-3.37;58.57;94788.72;5010290;28;20988;-61
2024/01/14 02:22:15;;;;;;;36.13;18.20;;;-2.90;91.70;;;-3.36;57.92;94787.84;5006783;28;20858;-60
2024/01/14 02:24:45;;;;;;;38.90;17.70;;;-2.80;91.70;;;-3.34;57.77;94787.78;5010796;28;20471;-62
2024/01/14 02:27:12;;;;;;;39.77;19.97;;;-2.80;91.60;;;-3.34;58.01;94785.19;5009971;28;20457;-62
2024/01/14 02:29:40;;;;;;;44.00;20.40;;;-2.80;91.70;;;-3.32;58.68;94784.22;5007535;28;20445;-69
2024/01/14 02:32:07;;;;;;;44.10;20.50;;;-2.80;91.60;;;-3.31;57.63;94780.78;5010517;28;20537;-69
2024/01/14 02:34:36;;;;;;;47.70;19.23;;;-2.80;91.80;;;-3.31;58.09;94774.81;5010609;28;21094;-69
2024/01/14 02:37:03;;;;;;;43.17;18.10;;;-2.80;91.70;;;-3.33;57.34;94772.28;5010346;28;20437;-61
2024/01/14 02:39:31;;;;;;;38.70;18.20;;;-2.80;91.40;;;-3.33;58.15;94774.00;5010804;28;20456;-71
2024/01/14 02:41:59;;;;;;;37.17;19.67;;;-2.80;91.70;;;-3.33;57.45;94776.56;5013217;28;20473;-62
2024/01/14 02:44:25;;;;;;;39.57;19.07;;;-2.80;91.50;;;-3.33;58.12;94776.56;5011039;28;20461;-61
2024/01/14 02:46:53;;;;;;;40.93;19.90;;;-2.80;91.50;;;-3.34;57.82;94780.06;5010170;28;20569;-70
2024/01/14 02:49:20;;;;;;;46.60;20.97;;;-2.80;91.40;;;-3.35;57.91;94784.34;5010092;28;20456;-61
2024/01/14 02:51:47;;;;;;;41.67;18.50;;;-2.80;91.40;;;-3.34;57.53;94774.91;5010026;28;20492;-70
2024/01/14 02:54:15;;;;;;;41.03;20.40;;;-2.80;91.40;;;-3.35;57.27;94771.50;5010204;28;20498;-61
2024/01/14 02:56:42;;;;;;;36.80;19.33;;;-2.80;91.40;;;-3.35;57.88;94763.78;5010203;28;20461;-70
2024/01/14 02:59:11;;;;;;;43.80;20.40;;;-2.80;91.50;;;-3.38;57.85;94761.31;5009859;28;20445;-60
2024/01/14 03:01:45;;;;;;;44.43;21.07;;;-2.80;91.60;;;-3.40;57.69;94770.00;5009946;28;20488;-61
2024/01/14 03:04:13;;;;;;;45.77;21.47;;;-2.90;91.40;;;-3.43;57.56;94765.81;5010000;28;20526;-70
2024/01/14 03:06:40;;;;;;;46.13;20.50;;;-2.90;91.40;;;-3.46;57.57;94768.50;5009466;28;20477;-61
2024/01/14 03:09:09;;;;;;;41.13;19.50;;;-2.90;91.30;;;-3.53;57.42;94765.34;5009689;28;20453;-61
2024/01/14 03:11:36;;;;;;;42.07;19.07;;;-3.00;91.40;;;-3.61;57.60;94763.06;5014712;28;20524;-70
2024/01/14 03:14:04;;;;;;;38.90;19.10;;;-3.00;91.40;;;-3.62;57.35;94763.09;5010862;28;20496;-68
2024/01/14 03:16:32;;;;;;;43.53;19.97;;;-3.10;91.10;;;-3.65;58.14;94766.63;5009592;28;20850;-69
2024/01/14 03:19:00;;;;;;;40.97;19.10;;;-3.10;91.20;;;-3.65;57.77;94760.66;5009808;28;20507;-63
2024/01/14 03:21:27;;;;;;;39.50;19.90;;;-3.10;91.30;;;-3.67;58.60;94773.56;5009838;28;20527;-62
2024/01/14 03:23:54;;;;;;;51.47;23.77;;;-3.10;91.30;;;-3.68;58.18;94768.47;5009582;28;20449;-69
2024/01/14 03:26:22;;;;;;;42.63;22.03;;;-3.10;91.50;;;-3.69;58.14;94765.03;5009616;28;20478;-61
2024/01/14 03:28:49;;;;;;;54.80;24.30;;;-3.10;91.60;;;-3.71;58.75;94759.13;5010610;28;20454;-69
2024/01/14 03:31:17;;;;;;;51.50;23.13;;;-3.20;91.40;;;-3.71;58.53;94760.88;5009555;28;20477;-69
2024/01/14 03:33:45;;;;;;;51.83;24.60;;;-3.20;91.50;;;-3.75;58.40;94765.28;5009045;28;20482;-62
2024/01/14 03:36:14;;;;;;;49.00;24.47;;;-3.20;91.40;;;-3.79;58.49;94766.31;5009362;28;20470;-69
2024/01/14 03:38:41;;;;;;;52.30;23.60;;;-3.20;91.40;;;-3.81;58.35;94771.50;5009331;28;20454;-62
2024/01/14 03:41:09;;;;;;;45.13;21.27;;;-3.20;91.40;;;-3.81;58.52;94765.50;5009867;28;20551;-62
2024/01/14 03:43:36;;;;;;;56.13;23.37;;;-3.30;91.30;;;-3.82;58.09;94761.28;5010706;28;20557;-62
2024/01/14 03:46:03;;;;;;;53.73;22.33;;;-3.30;91.30;;;-3.85;58.69;94772.50;5012521;28;20480;-69
2024/01/14 03:48:31;;;;;;;48.00;24.50;;;-3.30;91.50;;;-3.88;58.32;94764.91;5013819;28;20460;-69
2024/01/14 03:50:59;;;;;;;44.17;22.67;;;-3.30;91.50;;;-3.87;57.37;94774.28;5013652;28;20480;-61
2024/01/14 03:53:27;;;;;;;47.70;22.40;;;-3.30;91.50;;;-3.87;58.75;94776.84;5013147;28;20453;-61
2024/01/14 03:55:54;;;;;;;54.07;24.50;;;-3.30;91.60;;;-3.86;57.99;94787.97;5012897;28;20512;-61
2024/01/14 03:58:21;;;;;;;46.20;22.17;;;-3.30;91.60;;;-3.90;58.89;94782.09;5012920;28;20997;-69
2024/01/14 04:00:49;;;;;;;51.57;22.10;;;-3.30;91.70;;;-3.90;58.18;94787.25;5013204;28;20488;-65
2024/01/14 04:03:16;;;;;;;51.23;22.53;;;-3.30;91.70;;;-3.93;58.78;94776.22;5015324;28;20457;-61
2024/01/14 04:05:44;;;;;;;57.67;24.47;;;-3.40;91.90;;;-4.01;58.19;94761.13;5013000;28;21006;-61
2024/01/14 04:08:13;;;;;;;71.90;23.87;;;-3.40;92.00;;;-4.09;58.91;94776.81;5013077;28;20464;-69
2024/01/14 04:10:40;;;;;;;45.73;22.97;;;-3.50;91.90;;;-4.13;58.70;94785.50;5014476;28;20473;-69
2024/01/14 04:13:07;;;;;;;51.53;23.50;;;-3.60;92.00;;;-4.15;59.03;94777.00;5012967;28;20456;-69
2024/01/14 04:15:35;;;;;;;59.93;25.43;;;-3.60;91.90;;;-4.17;58.35;94783.91;5012782;28;20493;-70
2024/01/14 04:18:02;;;;;;;49.10;23.63;;;-3.60;92.40;;;-4.18;59.58;94769.41;5012843;28;20871;-62
2024/01/14 04:20:29;;;;;;;51.63;23.63;;;-3.60;92.40;;;-4.18;59.27;94761.72;5012846;28;20531;-69
2024/01/14 04:22:57;;;;;;;40.50;20.37;;;-3.60;92.30;;;-4.22;59.68;94778.09;5012697;28;20453;-61
2024/01/14 04:25:25;;;;;;;47.33;20.53;;;-3.60;92.70;;;-4.25;58.33;94773.91;5012965;28;20469;-63
2024/01/14 04:27:53;;;;;;;45.40;21.37;;;-3.70;92.20;;;-4.22;58.31;94762.72;5013352;28;20545;-61
2024/01/14 04:30:20;;;;;;;41.57;19.93;;;-3.70;92.10;;;-4.21;58.25;94769.53;5012707;28;20469;-69
2024/01/14 04:32:47;;;;;;;45.93;21.70;;;-3.70;92.10;;;-4.21;58.59;94764.38;5013450;28;20499;-61
2024/01/14 04:35:15;;;;;;;42.50;21.87;;;-3.70;92.10;;;-4.21;58.01;94765.22;5012462;28;20994;-61
2024/01/14 04:37:42;;;;;;;38.70;20.87;;;-3.70;92.20;;;-4.21;58.62;94764.38;5012587;28;20454;-60
2024/01/14 04:40:10;;;;;;;49.30;21.17;;;-3.60;92.20;;;-4.20;58.62;94756.63;5012347;28;20500;-61
2024/01/14 04:42:39;;;;;;;42.37;20.00;;;-3.60;92.40;;;-4.19;58.81;94771.13;5012420;28;20460;-61
2024/01/14 04:45:08;;;;;;;45.10;19.40;;;-3.60;92.40;;;-4.18;58.91;94770.25;5012083;28;20473;-61
2024/01/14 04:47:36;;;;;;;37.87;18.87;;;-3.60;92.60;;;-4.16;59.34;94773.59;5013060;28;20481;-61
2024/01/14 04:50:03;;;;;;;39.13;19.20;;;-3.60;92.30;;;-4.14;58.66;94768.41;5014331;28;20476;-61
2024/01/14 04:52:30;;;;;;;57.77;21.50;;;-3.60;92.40;;;-4.13;58.38;94772.66;5012870;28;20461;-70
2024/01/14 04:54:58;;;;;;;41.53;20.53;;;-3.60;92.20;;;-4.13;58.95;94775.22;5012246;28;20497;-61
2024/01/14 04:57:25;;;;;;;50.90;19.33;;;-3.60;92.30;;;-4.15;58.81;94770.13;5011373;28;20856;-62
2024/01/14 04:59:54;;;;;;;49.97;20.97;;;-3.60;92.30;;;-4.11;59.34;94777.72;5013559;28;20569;-60
2024/01/14 05:02:21;;;;;;;41.13;20.10;;;-3.60;92.30;;;-4.11;58.00;94770.84;5011669;28;20458;-60
2024/01/14 05:04:48;;;;;;;41.33;21.10;;;-3.60;92.20;;;-4.10;58.72;94769.16;5012788;28;20540;-62
2024/01/14 05:07:17;;;;;;;43.63;19.30;;;-3.60;92.30;;;-4.12;58.86;94769.19;5012460;28;20489;-69
2024/01/14 05:09:44;;;;;;;49.67;21.57;;;-3.50;92.20;;;-4.14;58.46;94773.53;5013284;28;20847;-70
2024/01/14 05:12:11;;;;;;;41.87;19.97;;;-3.60;92.30;;;-4.15;59.46;94774.44;5012531;28;20458;-66
2024/01/14 05:14:39;;;;;;;44.97;20.50;;;-3.60;92.60;;;-4.14;58.83;94768.41;5012704;28;20499;-69
2024/01/14 05:17:07;;;;;;;39.73;19.87;;;-3.60;92.60;;;-4.13;58.29;94770.09;5011938;28;20446;-62
2024/01/14 05:19:34;;;;;;;43.50;19.87;;;-3.60;92.40;;;-4.11;59.50;94768.28;5011501;28;20468;-62
2024/01/14 05:22:02;;;;;;;43.60;19.97;;;-3.60;92.50;;;-4.10;58.84;94762.28;5011672;28;20452;-68
2024/01/14 05:24:29;;;;;;;40.40;19.80;;;-3.50;92.50;;;-4.08;58.22;94763.03;5011545;28;20449;-68
2024/01/14 05:26:58;;;;;;;39.33;18.37;;;-3.50;92.40;;;-4.08;59.22;94767.34;5008793;28;20481;-69
2024/01/14 05:29:26;;;;;;;43.10;19.70;;;-3.50;92.30;;;-4.08;58.84;94762.22;5008252;28;20973;-61
2024/01/14 05:31:53;;;;;;;42.10;18.57;;;-3.50;92.40;;;-4.08;58.15;94762.22;5008225;28;20887;-69
2024/01/14 05:34:22;;;;;;;47.60;19.23;;;-3.50;92.40;;;-4.08;59.27;94763.03;5009161;28;20454;-61
2024/01/14 05:36:49;;;;;;;40.93;19.43;;;-3.50;92.30;;;-4.07;58.95;94769.88;5009015;28;21033;-69
2024/01/14 05:39:16;;;;;;;37.13;20.20;;;-3.50;92.40;;;-4.05;59.10;94769.81;5009171;28;20453;-67
2024/01/14 05:41:44;;;;;;;40.43;19.13;;;-3.50;92.70;;;-4.06;59.33;94766.41;5009356;28;20998;-70
2024/01/14 05:44:11;;;;;;;37.13;18.50;;;-3.50;92.50;;;-4.06;58.30;94761.28;5009703;28;20552;-69
2024/01/14 05:46:38;;;;;;;50.20;19.70;;;-3.50;92.50;;;-4.05;58.31;94759.53;5007698;28;20502;-62
2024/01/14 05:49:06;;;;;;;36.27;19.37;;;-3.50;92.60;;;-4.06;59.55;94760.41;5007650;28;20537;-65
2024/01/14 05:51:34;;;;;;;48.83;21.93;;;-3.50;92.70;;;-4.06;59.27;94769.00;5007514;28;20485;-71
2024/01/14 05:54:02;;;;;;;36.87;19.00;;;-3.50;92.60;;;-4.04;58.81;94768.94;5007715;28;20450;-61
2024/01/14 05:56:30;;;;;;;38.60;20.67;;;-3.50;92.50;;;-4.03;59.24;94762.88;5007617;28;20619;-70
2024/01/14 05:59:00;;;;;;;43.13;19.60;;;-3.50;92.50;;;-4.03;58.36;94763.75;5016440;28;20887;-61
2024/01/14 06:01:28;;;;;;;51.27;23.80;;;-3.50;92.50;;;-4.05;58.26;94768.06;5009700;28;20472;-62
2024/01/14 06:03:56;;;;;;;42.77;20.37;;;-3.50;92.50;;;-4.02;58.33;94767.97;5009872;28;20976;-62
2024/01/14 06:06:23;;;;;;;39.13;21.20;;;-3.50;92.50;;;-4.00;58.65;94761.06;5011199;28;20909;-61
2024/01/14 06:08:52;;;;;;;51.20;22.27;;;-3.40;92.80;;;-3.98;58.69;94751.56;5010649;28;20457;-61
2024/01/14 06:11:19;;;;;;;46.87;22.77;;;-3.40;92.70;;;-3.94;58.97;94752.28;5011135;28;20462;-61
2024/01/14 06:13:47;;;;;;;49.43;22.33;;;-3.40;92.60;;;-3.90;59.01;94750.41;5010741;28;20847;-61
2024/01/14 06:16:15;;;;;;;53.03;23.60;;;-3.40;92.50;;;-3.88;59.29;94751.22;5010665;28;20506;-61
2024/01/14 06:18:42;;;;;;;43.20;21.97;;;-3.30;92.90;;;-3.80;58.68;94757.72;5010632;28;20453;-63
2024/01/14 06:21:10;;;;;;;39.50;22.27;;;-3.30;93.00;;;-3.50;59.11;94749.78;5010766;28;20465;-61
2024/01/14 06:23:37;;;;;;;46.70;23.10;;;-3.10;93.10;;;-3.03;58.59;94760.88;5010639;28;20454;-60
2024/01/14 06:26:06;;;;;;;45.00;20.47;;;-2.70;93.30;;;-2.47;58.45;94744.81;5011062;28;20474;-65
2024/01/14 06:28:33;;;;;;;59.70;23.57;;;-2.20;93.20;;;-1.82;57.39;94745.44;5010410;28;20457;-64
2024/01/14 06:31:00;;;;;;;42.13;21.50;;;-1.60;92.50;;;-1.12;56.00;94745.66;5010427;28;20834;-64
2024/01/14 06:33:28;;;;;;;45.07;21.63;;;-0.90;91.80;;;-0.48;55.55;94745.19;5008842;28;20504;-64
2024/01/14 06:35:55;;;;;;;44.67;22.50;;;-0.30;90.90;;;0.08;55.18;94738.06;5009953;28;21013;-59
2024/01/14 06:38:23;;;;;;;43.03;21.60;;;0.30;90.00;;;0.59;53.24;94731.06;5010001;28;20504;-64
2024/01/14 06:40:50;;;;;;;41.40;21.80;;;0.90;87.80;;;0.95;52.25;94735.13;5006602;28;20477;-59
2024/01/14 06:43:19;;;;;;;50.40;23.57;;;1.30;85.80;;;1.28;51.34;94723.78;5010223;28;20468;-60
2024/01/14 06:45:47;;;;;;;47.67;24.17;;;1.70;83.80;;;1.79;50.83;94724.25;5006762;28;20850;-64
2024/01/14 06:48:14;;;;;;;46.23;24.10;;;2.20;83.20;;;2.32;50.23;94723.75;5010574;28;20540;-63
2024/01/14 06:50:41;;;;;;;60.63;26.43;;;2.70;80.60;;;2.81;49.53;94725.91;5009721;28;20474;-64
2024/01/14 06:53:09;;;;;;;56.33;28.07;;;3.20;79.60;;;3.22;48.60;94724.19;5010280;28;20456;-61
2024/01/14 06:55:36;;;;;;;60.33;30.53;;;3.60;77.70;;;3.52;48.41;94726.56;5006341;28;20493;-60
2024/01/14 06:58:04;;;;;;;55.70;30.33;;;4.00;77.10;;;3.93;47.49;94724.75;5006313;28;20446;-59
2024/01/14 07:00:33;;;;;;;59.40;31.40;;;4.30;74.50;;;4.36;46.66;94719.22;5006166;28;21019;-62
2024/01/14 07:03:00;;;;;;;55.20;30.90;;;4.80;73.20;;;4.80;46.31;94715.31;5009300;28;20449;-61
2024/01/14 07:05:28;;;;;;;63.57;32.17;;;5.20;72.20;;;5.07;46.22;94708.22;5005258;28;20474;-66
2024/01/14 07:07:55;;;;;;;63.53;32.67;;;5.50;72.30;;;5.15;45.22;94709.31;5007526;28;20448;-61
2024/01/14 07:10:23;;;;;;;73.17;33.77;;;5.70;69.60;;;5.17;44.73;94712.66;5006299;28;20484;-64
2024/01/14 07:12:50;;;;;;;79.90;34.63;;;5.70;68.40;;;5.06;44.89;94719.59;5006237;28;20519;-64
2024/01/14 07:15:18;;;;;;;66.67;36.10;;;5.60;67.70;;;4.84;44.12;94721.13;5005765;28;20493;-62
2024/01/14 07:17:47;;;;;;;67.27;34.77;;;5.50;65.90;;;4.94;44.65;94710.88;5010100;28;20533;-62
2024/01/14 07:20:15;;;;;;;65.33;33.50;;;5.60;66.70;;;5.41;45.34;94713.56;5005653;28;20488;-62
2024/01/14 07:22:42;;;;;;;71.80;32.60;;;6.00;68.30;;;5.94;44.43;94719.22;5005799;28;20461;-62
2024/01/14 07:25:10;;;;;;;61.07;33.10;;;6.60;68.10;;;6.59;43.39;94728.22;5006024;28;20606;-65
2024/01/14 07:27:37;;;;;;;67.97;34.80;;;7.20;66.50;;;7.28;42.29;94732.41;5005411;28;20552;-62
2024/01/14 07:30:06;;;;;;;61.93;34.17;;;7.90;65.00;;;7.90;41.59;94733.47;5005470;28;20469;-63
2024/01/14 07:32:33;;;;;;;68.97;37.60;;;8.50;63.20;;;8.34;40.29;94717.59;5010450;28;20453;-76
2024/01/14 07:35:03;;;;;;;80.60;41.40;;;9.00;60.50;;;8.63;40.24;94721.34;5009133;28;20520;-65
2024/01/14 07:37:33;;;;;;;88.47;44.97;;;9.30;59.00;;;8.83;38.96;94727.50;5009940;28;20568;-70
2024/01/14 07:40:01;;;;;;;87.00;40.00;;;9.60;57.70;;;9.03;39.11;94724.00;5009658;28;20485;-72
2024/01/14 07:42:28;;;;;;;83.93;43.10;;;9.70;58.10;;;9.30;38.66;94709.41;5009630;28;20493;-62
2024/01/14 07:44:56;;;;;;;72.07;38.50;;;9.90;57.10;;;9.57;38.13;94708.72;5009525;28;20846;-63
2024/01/14 07:47:23;;;;;;;78.77;40.20;;;10.10;56.10;;;9.84;37.69;94712.47;5009684;28;20462;-62
2024/01/14 07:49:51;;;;;;;78.37;37.93;;;10.30;55.10;;;9.74;35.70;94711.63;5009106;28;20981;-63
2024/01/14 07:52:20;;;;;;;78.97;37.60;;;10.10;52.30;;;9.13;36.74;94709.09;5009071;28;20515;-63
2024/01/14 07:54:47;;;;;;;72.17;38.13;;;9.70;52.40;;;8.63;37.22;94716.09;5008997;28;20445;-64
2024/01/14 07:57:14;;;;;;;66.13;36.60;;;9.20;52.70;;;8.45;37.62;94708.03;5008910;28;20507;-62
2024/01/14 07:59:42;;;;;;;73.30;38.17;;;8.90;54.10;;;8.50;38.17;94696.19;5008316;28;20461;-63
2024/01/14 08:02:09;;;;;;;64.97;37.13;;;8.80;55.10;;;8.69;38.24;94690.19;5007747;28;20776;-63
2024/01/14 08:04:36;;;;;;;60.17;32.60;;;8.90;55.20;;;9.03;38.53;94678.53;5008123;28;20460;-62
2024/01/14 08:07:04;;;;;;;71.97;36.87;;;9.10;57.20;;;9.40;38.03;94676.09;5007241;28;20504;-62
2024/01/14 08:09:33;;;;;;;68.90;36.83;;;9.40;56.20;;;9.71;37.40;94680.41;5007373;28;20515;-63
2024/01/14 08:12:00;;;;;;;83.47;36.00;;;9.70;56.10;;;10.04;37.00;94682.56;5007340;28;20501;-63
2024/01/14 08:14:28;;;;;;;63.20;35.70;;;10.10;54.00;;;10.40;36.17;94684.59;5007037;28;20476;-63
2024/01/14 08:16:56;;;;;;;61.53;34.23;;;10.40;53.30;;;10.76;35.91;94685.53;5006999;28;20493;-62
2024/01/14 08:19:24;;;;;;;67.83;34.33;;;10.70;52.70;;;11.11;35.36;94675.28;5007301;28;20521;-64
2024/01/14 08:21:52;;;;;;;59.57;36.00;;;11.10;52.60;;;11.50;35.20;94684.72;5009231;28;20473;-63
2024/01/14 08:24:20;;;;;;;64.57;34.87;;;11.40;52.00;;;11.86;34.45;94693.44;5009198;28;20458;-64
2024/01/14 08:26:49;;;;;;;61.33;34.50;;;11.80;51.40;;;12.19;34.12;94680.50;5009128;28;20473;-63
2024/01/14 08:29:17;;;;;;;62.43;35.20;;;12.10;50.70;;;12.50;34.05;94687.97;5009067;28;20453;-62
2024/01/14 08:31:44;;;;;;;81.43;36.20;;;12.40;50.10;;;12.74;32.82;94688.09;5010761;28;20472;-63
2024/01/14 08:34:12;;;;;;;60.23;34.60;;;12.70;48.60;;;12.98;32.94;94677.81;5011375;28;20458;-62
2024/01/14 08:36:39;;;;;;;66.33;36.50;;;12.90;49.20;;;13.24;32.58;94678.53;5012614;28;20604;-63
2024/01/14 08:39:07;;;;;;;62.40;35.83;;;13.10;48.30;;;13.45;32.20;94683.44;5012708;28;20461;-65
2024/01/14 08:41:34;;;;;;;67.33;35.80;;;13.30;48.30;;;13.68;32.08;94674.03;5012750;28;20515;-63
2024/01/14 08:44:06;;;;;;;55.63;35.30;;;13.50;47.60;;;13.87;31.76;94668.44;5012633;28;20957;-61
2024/01/14 08:46:35;;;;;;;63.77;34.57;;;13.80;47.30;;;14.07;30.90;94674.22;5012277;28;20492;-63
2024/01/14 08:49:03;;;;;;;59.90;35.37;;;13.90;46.80;;;14.29;31.00;94680.66;5012136;28;20454;-63
2024/01/14 08:51:30;;;;;;;63.63;38.07;;;14.10;46.30;;;14.40;30.07;94681.31;5012157;28;21029;-64
2024/01/14 08:54:00;;;;;;;58.40;33.60;;;14.30;44.20;;;14.36;30.24;94683.47;5012698;28;20453;-64
2024/01/14 08:56:30;;;;;;;56.73;32.50;;;14.30;43.80;;;14.34;30.42;94670.41;5013070;28;20485;-62
2024/01/14 08:58:58;;;;;;;61.50;32.37;;;14.20;44.40;;;14.34;29.92;94673.06;5014410;28;20454;-77
2024/01/14 09:01:28;;;;;;;52.63;31.53;;;14.20;44.40;;;14.29;29.89;94670.06;5017173;28;20477;-64
2024/01/14 09:03:55;;;;;;;69.37;33.30;;;14.20;44.40;;;14.23;29.90;94669.91;5011847;28;20872;-63
2024/01/14 09:06:23;;;;;;;58.40;32.03;;;14.10;44.30;;;14.15;30.04;94671.56;5012279;28;20481;-65
2024/01/14 09:08:50;;;;;;;63.07;31.70;;;14.10;43.90;;;14.08;29.56;94677.69;5014341;28;21006;-65
2024/01/14 09:11:18;;;;;;;64.07;30.00;;;14.00;43.10;;;13.95;28.58;94672.91;5008251;28;20471;-69
2024/01/14 09:13:46;;;;;;;55.97;31.03;;;13.90;41.80;;;13.93;30.23;94672.25;5011694;28;20473;-65
2024/01/14 09:16:13;;;;;;;49.20;30.30;;;13.80;44.00;;;13.98;29.89;94662.81;5011631;28;20543;-64
2024/01/14 09:18:43;;;;;;;47.87;29.60;;;13.90;43.30;;;14.02;30.03;94665.97;5011618;28;20450;-62
2024/01/14 09:21:10;;;;;;;53.97;30.20;;;13.90;44.10;;;14.06;29.75;94658.53;5009780;28;20466;-64
2024/01/14 09:23:38;;;;;;;56.43;30.87;;;13.90;43.90;;;13.96;29.79;94651.59;5011778;28;20953;-64
2024/01/14 09:26:05;;;;;;;59.73;32.17;;;13.90;43.40;;;14.00;30.15;94652.06;5011646;28;20561;-64
2024/01/14 09:28:33;;;;;;;51.53;29.13;;;13.90;43.90;;;14.03;29.79;94656.22;5011730;28;20460;-64
2024/01/14 09:31:00;;;;;;;47.07;28.20;;;14.00;44.00;;;14.12;29.95;94653.38;5011286;28;20473;-64
2024/01/14 09:33:28;;;;;;;51.63;30.60;;;14.10;43.60;;;14.29;29.71;94651.53;5010018;28;21208;-62
2024/01/14 09:35:57;;;;;;;46.93;28.40;;;14.20;43.50;;;14.43;29.65;94644.75;5011255;28;20489;-63
2024/01/14 09:38:24;;;;;;;48.53;27.70;;;14.30;43.40;;;14.65;29.42;94640.56;5011569;28;20832;-65
2024/01/14 09:40:57;;;;;;;47.20;26.60;;;14.50;43.60;;;14.80;29.03;94637.22;5011094;28;20477;-64
2024/01/14 09:43:25;;;;;;;52.27;29.93;;;14.60;43.20;;;14.75;29.26;94640.38;5008880;28;20449;-64
2024/01/14 09:45:52;;;;;;;51.73;28.07;;;14.70;43.00;;;14.79;29.12;94639.03;5010128;28;20505;-64
2024/01/14 09:48:19;;;;;;;42.80;26.90;;;14.70;42.60;;;14.90;28.95;94624.59;5011325;28;20449;-64
2024/01/14 09:50:47;;;;;;;37.23;23.77;;;14.80;42.70;;;15.16;28.99;94623.47;5011033;28;20851;-64
2024/01/14 09:53:16;;;;;;;53.87;25.70;;;15.00;42.70;;;15.49;28.71;94613.50;5011321;28;20516;-66
2024/01/14 09:55:44;;;;;;;37.00;22.97;;;15.30;42.80;;;15.89;28.30;94613.38;5010614;28;20469;-65
2024/01/14 09:58:12;;;;;;;46.27;22.20;;;15.60;42.20;;;16.27;27.66;94616.84;5011458;28;20544;-64
2024/01/14 10:00:41;;;;;;;42.00;20.43;;;15.90;41.70;;;16.58;27.35;94615.88;5011087;28;20504;-65
2024/01/14 10:03:08;;;;;;;45.87;20.93;;;16.30;41.30;;;16.87;27.72;94610.75;5010784;28;20464;-64
2024/01/14 10:05:36;;;;;;;37.33;20.80;;;16.60;41.70;;;17.16;27.37;94616.00;5011106;28;20477;-65
2024/01/14 10:08:05;;;;;;;52.77;21.50;;;16.80;40.90;;;17.28;27.18;94603.06;5011137;28;20493;-64
2024/01/14 10:10:34;;;;;;;60.03;21.33;;;16.90;40.30;;;17.04;26.58;94598.91;5011148;28;20466;-65